aviador You're here:

KJRB Decoded Metar

in
Report Time2017-08-22 22:15:00
UTC Time2017-08-22 22:29:48
Flight Rules vfr VFR
Wind250° at 12 kt
W.Rank250° ranks 3
Current wind is above 250° avg. (6.2)
Visibility9999 m
Phenomena:N/A
Clouds:Few 047 Hf
Expected CloudBase > 4,000 ft AGL from Temp-Dew spread
CeilingNone
Temp32°C
Dew Point22°C (55% RH)
Heat Index35.6°C
QNH1009 hPa
Raw Report
KJRB 222215Z 25012KT 10SM FEW047 32/22 A2980 RMK AO2 SLP298 PWINO
FZRANO RVRNO=

Extra information for KJRB:More info

Social comments